sensor_id;sensor_type;location;lat;lon;timestamp;P1;durP1;ratioP1;P2;durP2;ratioP2
50219;SDS011;36110;51.536;7.562;2023-12-20T00:01:06;3.85;;;3.47;;
50219;SDS011;36110;51.536;7.562;2023-12-20T00:03:32;3.90;;;3.60;;
50219;SDS011;36110;51.536;7.562;2023-12-20T00:05:57;3.90;;;3.50;;
50219;SDS011;36110;51.536;7.562;2023-12-20T00:08:22;3.80;;;3.47;;
50219;SDS011;36110;51.536;7.562;2023-12-20T00:10:48;4.28;;;3.88;;
50219;SDS011;36110;51.536;7.562;2023-12-20T00:13:13;4.18;;;3.78;;
50219;SDS011;36110;51.536;7.562;2023-12-20T00:15:39;5.40;;;4.90;;
50219;SDS011;36110;51.536;7.562;2023-12-20T00:18:04;4.18;;;3.78;;
50219;SDS011;36110;51.536;7.562;2023-12-20T00:20:30;4.32;;;3.92;;
50219;SDS011;36110;51.536;7.562;2023-12-20T00:22:56;4.22;;;3.83;;
50219;SDS011;36110;51.536;7.562;2023-12-20T00:25:22;4.32;;;3.92;;
50219;SDS011;36110;51.536;7.562;2023-12-20T00:27:48;4.28;;;3.88;;
50219;SDS011;36110;51.536;7.562;2023-12-20T00:30:13;4.40;;;4.00;;
50219;SDS011;36110;51.536;7.562;2023-12-20T00:32:38;6.80;;;5.63;;
50219;SDS011;36110;51.536;7.562;2023-12-20T00:35:04;4.60;;;4.07;;
50219;SDS011;36110;51.536;7.562;2023-12-20T00:37:29;4.70;;;4.30;;
50219;SDS011;36110;51.536;7.562;2023-12-20T00:39:54;5.28;;;4.40;;
50219;SDS011;36110;51.536;7.562;2023-12-20T00:42:20;6.60;;;5.40;;
50219;SDS011;36110;51.536;7.562;2023-12-20T00:44:45;4.50;;;4.10;;
50219;SDS011;36110;51.536;7.562;2023-12-20T00:47:10;17.77;;;12.25;;
50219;SDS011;36110;51.536;7.562;2023-12-20T00:49:36;6.20;;;4.63;;
50219;SDS011;36110;51.536;7.562;2023-12-20T00:52:01;5.55;;;4.95;;
50219;SDS011;36110;51.536;7.562;2023-12-20T00:54:26;5.10;;;4.50;;
50219;SDS011;36110;51.536;7.562;2023-12-20T00:56:52;5.03;;;4.53;;
50219;SDS011;36110;51.536;7.562;2023-12-20T00:59:17;9.02;;;8.07;;
50219;SDS011;36110;51.536;7.562;2023-12-20T01:01:43;5.68;;;5.18;;
50219;SDS011;36110;51.536;7.562;2023-12-20T01:04:08;4.80;;;4.30;;
50219;SDS011;36110;51.536;7.562;2023-12-20T01:06:33;10.90;;;6.50;;
50219;SDS011;36110;51.536;7.562;2023-12-20T01:08:59;7.65;;;6.07;;
50219;SDS011;36110;51.536;7.562;2023-12-20T01:11:24;5.15;;;4.65;;
50219;SDS011;36110;51.536;7.562;2023-12-20T01:13:50;9.65;;;5.95;;
50219;SDS011;36110;51.536;7.562;2023-12-20T01:16:17;10.85;;;5.15;;
50219;SDS011;36110;51.536;7.562;2023-12-20T01:18:42;5.90;;;4.97;;
50219;SDS011;36110;51.536;7.562;2023-12-20T01:21:08;5.63;;;4.93;;
50219;SDS011;36110;51.536;7.562;2023-12-20T01:23:33;6.50;;;4.97;;
50219;SDS011;36110;51.536;7.562;2023-12-20T01:25:59;7.18;;;5.30;;
50219;SDS011;36110;51.536;7.562;2023-12-20T01:28:27;5.30;;;4.80;;
50219;SDS011;36110;51.536;7.562;2023-12-20T01:30:53;8.25;;;4.93;;
50219;SDS011;36110;51.536;7.562;2023-12-20T01:33:18;6.82;;;4.97;;
50219;SDS011;36110;51.536;7.562;2023-12-20T01:35:43;6.07;;;5.47;;
50219;SDS011;36110;51.536;7.562;2023-12-20T01:38:09;9.45;;;5.03;;
50219;SDS011;36110;51.536;7.562;2023-12-20T01:40:34;9.40;;;4.88;;
50219;SDS011;36110;51.536;7.562;2023-12-20T01:43:00;5.97;;;4.35;;
50219;SDS011;36110;51.536;7.562;2023-12-20T01:45:26;12.57;;;5.30;;
50219;SDS011;36110;51.536;7.562;2023-12-20T01:47:52;5.68;;;4.45;;
50219;SDS011;36110;51.536;7.562;2023-12-20T01:50:17;11.45;;;4.63;;
50219;SDS011;36110;51.536;7.562;2023-12-20T01:52:43;6.10;;;4.63;;
50219;SDS011;36110;51.536;7.562;2023-12-20T01:55:09;5.75;;;4.25;;
50219;SDS011;36110;51.536;7.562;2023-12-20T01:57:39;6.25;;;4.70;;
50219;SDS011;36110;51.536;7.562;2023-12-20T02:00:06;6.80;;;4.72;;
50219;SDS011;36110;51.536;7.562;2023-12-20T02:02:31;10.45;;;4.60;;
50219;SDS011;36110;51.536;7.562;2023-12-20T02:04:57;6.18;;;4.18;;
50219;SDS011;36110;51.536;7.562;2023-12-20T02:07:22;8.00;;;4.15;;
50219;SDS011;36110;51.536;7.562;2023-12-20T02:09:48;11.77;;;4.40;;
50219;SDS011;36110;51.536;7.562;2023-12-20T02:12:13;9.43;;;4.70;;
50219;SDS011;36110;51.536;7.562;2023-12-20T02:14:39;4.60;;;4.10;;
50219;SDS011;36110;51.536;7.562;2023-12-20T02:17:04;7.43;;;4.57;;
50219;SDS011;36110;51.536;7.562;2023-12-20T02:19:29;4.82;;;4.18;;
50219;SDS011;36110;51.536;7.562;2023-12-20T02:22:04;4.90;;;4.40;;
50219;SDS011;36110;51.536;7.562;2023-12-20T02:24:36;4.80;;;4.20;;
50219;SDS011;36110;51.536;7.562;2023-12-20T02:27:01;7.00;;;4.55;;
50219;SDS011;36110;51.536;7.562;2023-12-20T02:29:27;5.53;;;3.95;;
50219;SDS011;36110;51.536;7.562;2023-12-20T02:31:52;5.68;;;4.25;;
50219;SDS011;36110;51.536;7.562;2023-12-20T02:34:18;5.15;;;4.43;;
50219;SDS011;36110;51.536;7.562;2023-12-20T02:36:43;7.10;;;4.75;;
50219;SDS011;36110;51.536;7.562;2023-12-20T02:39:09;5.35;;;4.13;;
50219;SDS011;36110;51.536;7.562;2023-12-20T02:41:34;8.45;;;4.63;;
50219;SDS011;36110;51.536;7.562;2023-12-20T02:44:01;5.10;;;3.85;;
50219;SDS011;36110;51.536;7.562;2023-12-20T02:46:27;4.88;;;3.97;;
50219;SDS011;36110;51.536;7.562;2023-12-20T02:48:52;7.03;;;4.32;;
50219;SDS011;36110;51.536;7.562;2023-12-20T02:51:18;6.70;;;4.13;;
50219;SDS011;36110;51.536;7.562;2023-12-20T02:53:44;4.20;;;3.78;;
50219;SDS011;36110;51.536;7.562;2023-12-20T02:56:09;7.60;;;4.25;;
50219;SDS011;36110;51.536;7.562;2023-12-20T02:58:34;11.98;;;5.10;;
50219;SDS011;36110;51.536;7.562;2023-12-20T03:01:00;8.75;;;5.38;;
50219;SDS011;36110;51.536;7.562;2023-12-20T03:03:25;4.80;;;3.47;;
50219;SDS011;36110;51.536;7.562;2023-12-20T03:05:50;8.55;;;4.80;;
50219;SDS011;36110;51.536;7.562;2023-12-20T03:08:19;9.90;;;4.43;;
50219;SDS011;36110;51.536;7.562;2023-12-20T03:10:44;15.57;;;5.95;;
50219;SDS011;36110;51.536;7.562;2023-12-20T03:13:09;15.15;;;5.97;;
50219;SDS011;36110;51.536;7.562;2023-12-20T03:15:35;5.68;;;4.25;;
50219;SDS011;36110;51.536;7.562;2023-12-20T03:18:00;8.40;;;4.80;;
50219;SDS011;36110;51.536;7.562;2023-12-20T03:20:26;9.68;;;5.13;;
50219;SDS011;36110;51.536;7.562;2023-12-20T03:22:51;9.77;;;4.63;;
50219;SDS011;36110;51.536;7.562;2023-12-20T03:25:16;5.78;;;4.10;;
50219;SDS011;36110;51.536;7.562;2023-12-20T03:27:42;11.40;;;5.13;;
50219;SDS011;36110;51.536;7.562;2023-12-20T03:30:11;5.72;;;4.43;;
50219;SDS011;36110;51.536;7.562;2023-12-20T03:32:37;5.18;;;3.95;;
50219;SDS011;36110;51.536;7.562;2023-12-20T03:35:03;5.47;;;4.03;;
50219;SDS011;36110;51.536;7.562;2023-12-20T03:37:29;9.30;;;4.78;;
50219;SDS011;36110;51.536;7.562;2023-12-20T03:39:54;5.65;;;4.00;;
50219;SDS011;36110;51.536;7.562;2023-12-20T03:42:20;8.00;;;4.43;;
50219;SDS011;36110;51.536;7.562;2023-12-20T03:44:45;12.23;;;5.38;;
50219;SDS011;36110;51.536;7.562;2023-12-20T03:47:11;6.75;;;4.30;;
50219;SDS011;36110;51.536;7.562;2023-12-20T03:49:36;9.10;;;4.70;;
50219;SDS011;36110;51.536;7.562;2023-12-20T03:52:03;5.15;;;3.35;;
50219;SDS011;36110;51.536;7.562;2023-12-20T03:54:29;7.45;;;4.45;;
50219;SDS011;36110;51.536;7.562;2023-12-20T03:56:54;7.13;;;4.40;;
50219;SDS011;36110;51.536;7.562;2023-12-20T03:59:20;6.85;;;4.45;;
50219;SDS011;36110;51.536;7.562;2023-12-20T04:01:45;7.50;;;4.63;;
50219;SDS011;36110;51.536;7.562;2023-12-20T04:04:10;7.20;;;4.60;;
50219;SDS011;36110;51.536;7.562;2023-12-20T04:06:36;7.07;;;4.35;;
50219;SDS011;36110;51.536;7.562;2023-12-20T04:09:01;22.67;;;6.50;;
50219;SDS011;36110;51.536;7.562;2023-12-20T04:11:27;12.43;;;5.72;;
50219;SDS011;36110;51.536;7.562;2023-12-20T04:13:52;6.72;;;4.43;;
50219;SDS011;36110;51.536;7.562;2023-12-20T04:16:17;9.30;;;6.13;;
50219;SDS011;36110;51.536;7.562;2023-12-20T04:18:43;12.20;;;5.47;;
50219;SDS011;36110;51.536;7.562;2023-12-20T04:21:08;7.82;;;5.07;;
50219;SDS011;36110;51.536;7.562;2023-12-20T04:23:34;12.35;;;5.38;;
50219;SDS011;36110;51.536;7.562;2023-12-20T04:25:59;8.18;;;4.50;;
50219;SDS011;36110;51.536;7.562;2023-12-20T04:28:24;13.65;;;6.78;;
50219;SDS011;36110;51.536;7.562;2023-12-20T04:30:50;6.93;;;4.38;;
50219;SDS011;36110;51.536;7.562;2023-12-20T04:33:15;15.15;;;5.50;;
50219;SDS011;36110;51.536;7.562;2023-12-20T04:35:40;5.68;;;4.20;;
50219;SDS011;36110;51.536;7.562;2023-12-20T04:38:07;13.35;;;6.00;;
50219;SDS011;36110;51.536;7.562;2023-12-20T04:40:33;17.33;;;6.53;;
50219;SDS011;36110;51.536;7.562;2023-12-20T04:42:58;4.93;;;4.43;;
50219;SDS011;36110;51.536;7.562;2023-12-20T04:45:23;14.95;;;5.82;;
50219;SDS011;36110;51.536;7.562;2023-12-20T04:47:50;20.52;;;6.43;;
50219;SDS011;36110;51.536;7.562;2023-12-20T04:50:15;16.42;;;5.95;;
50219;SDS011;36110;51.536;7.562;2023-12-20T04:52:41;9.40;;;4.95;;
50219;SDS011;36110;51.536;7.562;2023-12-20T04:55:07;15.82;;;6.43;;
50219;SDS011;36110;51.536;7.562;2023-12-20T04:57:33;11.00;;;4.80;;
50219;SDS011;36110;51.536;7.562;2023-12-20T04:59:59;7.72;;;4.95;;
50219;SDS011;36110;51.536;7.562;2023-12-20T05:02:25;10.25;;;5.57;;
50219;SDS011;36110;51.536;7.562;2023-12-20T05:04:50;11.10;;;5.60;;
50219;SDS011;36110;51.536;7.562;2023-12-20T05:07:15;7.20;;;4.70;;
50219;SDS011;36110;51.536;7.562;2023-12-20T05:09:41;20.55;;;7.47;;
50219;SDS011;36110;51.536;7.562;2023-12-20T05:12:06;8.93;;;5.03;;
50219;SDS011;36110;51.536;7.562;2023-12-20T05:14:32;9.30;;;5.20;;
50219;SDS011;36110;51.536;7.562;2023-12-20T05:17:00;16.88;;;6.82;;
50219;SDS011;36110;51.536;7.562;2023-12-20T05:19:26;16.42;;;7.45;;
50219;SDS011;36110;51.536;7.562;2023-12-20T05:21:51;8.48;;;4.65;;
50219;SDS011;36110;51.536;7.562;2023-12-20T05:24:17;10.27;;;4.40;;
50219;SDS011;36110;51.536;7.562;2023-12-20T05:26:42;7.15;;;4.88;;
50219;SDS011;36110;51.536;7.562;2023-12-20T05:29:07;5.93;;;5.00;;
50219;SDS011;36110;51.536;7.562;2023-12-20T05:31:33;15.80;;;7.47;;
50219;SDS011;36110;51.536;7.562;2023-12-20T05:33:58;7.82;;;5.25;;
50219;SDS011;36110;51.536;7.562;2023-12-20T05:36:24;13.00;;;6.60;;
50219;SDS011;36110;51.536;7.562;2023-12-20T05:38:49;10.70;;;5.43;;
50219;SDS011;36110;51.536;7.562;2023-12-20T05:41:14;7.18;;;4.47;;
50219;SDS011;36110;51.536;7.562;2023-12-20T05:43:40;11.20;;;6.10;;
50219;SDS011;36110;51.536;7.562;2023-12-20T05:46:05;12.38;;;6.47;;
50219;SDS011;36110;51.536;7.562;2023-12-20T05:48:30;5.97;;;4.68;;
50219;SDS011;36110;51.536;7.562;2023-12-20T05:50:56;9.75;;;5.07;;
50219;SDS011;36110;51.536;7.562;2023-12-20T05:53:21;12.02;;;6.25;;
50219;SDS011;36110;51.536;7.562;2023-12-20T05:55:46;11.23;;;6.45;;
50219;SDS011;36110;51.536;7.562;2023-12-20T05:58:12;11.18;;;6.13;;
50219;SDS011;36110;51.536;7.562;2023-12-20T06:00:37;15.27;;;7.85;;
50219;SDS011;36110;51.536;7.562;2023-12-20T06:03:03;11.88;;;5.65;;
50219;SDS011;36110;51.536;7.562;2023-12-20T06:05:29;12.95;;;6.50;;
50219;SDS011;36110;51.536;7.562;2023-12-20T06:07:55;6.50;;;4.90;;
50219;SDS011;36110;51.536;7.562;2023-12-20T06:10:22;5.97;;;4.65;;
50219;SDS011;36110;51.536;7.562;2023-12-20T06:12:47;12.68;;;6.25;;
50219;SDS011;36110;51.536;7.562;2023-12-20T06:15:15;10.32;;;5.60;;
50219;SDS011;36110;51.536;7.562;2023-12-20T06:17:40;8.60;;;5.32;;
50219;SDS011;36110;51.536;7.562;2023-12-20T06:20:06;6.93;;;4.80;;
50219;SDS011;36110;51.536;7.562;2023-12-20T06:22:33;7.00;;;4.70;;
50219;SDS011;36110;51.536;7.562;2023-12-20T06:24:59;12.32;;;6.45;;
50219;SDS011;36110;51.536;7.562;2023-12-20T06:27:24;8.63;;;4.90;;
50219;SDS011;36110;51.536;7.562;2023-12-20T06:29:49;13.88;;;5.55;;
50219;SDS011;36110;51.536;7.562;2023-12-20T06:32:15;12.20;;;5.00;;
50219;SDS011;36110;51.536;7.562;2023-12-20T06:34:40;7.07;;;4.30;;
50219;SDS011;36110;51.536;7.562;2023-12-20T06:37:05;10.00;;;5.57;;
50219;SDS011;36110;51.536;7.562;2023-12-20T06:39:31;13.93;;;6.05;;
50219;SDS011;36110;51.536;7.562;2023-12-20T06:41:58;6.03;;;4.57;;
50219;SDS011;36110;51.536;7.562;2023-12-20T06:44:24;21.33;;;7.30;;
50219;SDS011;36110;51.536;7.562;2023-12-20T06:46:49;12.73;;;6.75;;
50219;SDS011;36110;51.536;7.562;2023-12-20T06:49:14;26.05;;;8.63;;
50219;SDS011;36110;51.536;7.562;2023-12-20T06:51:40;25.17;;;9.52;;
50219;SDS011;36110;51.536;7.562;2023-12-20T06:54:05;23.50;;;9.70;;
50219;SDS011;36110;51.536;7.562;2023-12-20T06:56:30;24.92;;;10.05;;
50219;SDS011;36110;51.536;7.562;2023-12-20T06:58:56;20.10;;;9.65;;
50219;SDS011;36110;51.536;7.562;2023-12-20T07:01:21;19.67;;;9.73;;
50219;SDS011;36110;51.536;7.562;2023-12-20T07:03:47;21.05;;;9.18;;
50219;SDS011;36110;51.536;7.562;2023-12-20T07:06:12;25.55;;;9.10;;
50219;SDS011;36110;51.536;7.562;2023-12-20T07:08:40;30.23;;;10.20;;
50219;SDS011;36110;51.536;7.562;2023-12-20T07:11:06;26.38;;;9.43;;
50219;SDS011;36110;51.536;7.562;2023-12-20T07:13:31;22.40;;;10.00;;
50219;SDS011;36110;51.536;7.562;2023-12-20T07:15:56;24.42;;;10.02;;
50219;SDS011;36110;51.536;7.562;2023-12-20T07:18:22;22.10;;;9.32;;
50219;SDS011;36110;51.536;7.562;2023-12-20T07:20:47;22.10;;;8.68;;
50219;SDS011;36110;51.536;7.562;2023-12-20T07:23:13;18.80;;;8.98;;
50219;SDS011;36110;51.536;7.562;2023-12-20T07:25:38;29.92;;;8.75;;
50219;SDS011;36110;51.536;7.562;2023-12-20T07:28:03;18.52;;;8.88;;
50219;SDS011;36110;51.536;7.562;2023-12-20T07:30:29;20.70;;;9.63;;
50219;SDS011;36110;51.536;7.562;2023-12-20T07:32:55;25.60;;;8.20;;
50219;SDS011;36110;51.536;7.562;2023-12-20T07:35:20;17.27;;;9.20;;
50219;SDS011;36110;51.536;7.562;2023-12-20T07:37:45;20.05;;;8.38;;
50219;SDS011;36110;51.536;7.562;2023-12-20T07:40:11;19.40;;;8.65;;
50219;SDS011;36110;51.536;7.562;2023-12-20T07:42:36;16.55;;;8.85;;
50219;SDS011;36110;51.536;7.562;2023-12-20T07:45:01;17.58;;;8.75;;
50219;SDS011;36110;51.536;7.562;2023-12-20T07:47:27;17.70;;;8.55;;
50219;SDS011;36110;51.536;7.562;2023-12-20T07:49:52;19.77;;;10.35;;
50219;SDS011;36110;51.536;7.562;2023-12-20T07:52:18;16.27;;;8.60;;
50219;SDS011;36110;51.536;7.562;2023-12-20T07:54:44;18.45;;;8.25;;
50219;SDS011;36110;51.536;7.562;2023-12-20T07:57:10;21.98;;;8.32;;
50219;SDS011;36110;51.536;7.562;2023-12-20T07:59:35;15.80;;;8.30;;
50219;SDS011;36110;51.536;7.562;2023-12-20T08:02:01;17.98;;;8.82;;
50219;SDS011;36110;51.536;7.562;2023-12-20T08:04:26;13.77;;;7.97;;
50219;SDS011;36110;51.536;7.562;2023-12-20T08:06:52;18.25;;;8.07;;
50219;SDS011;36110;51.536;7.562;2023-12-20T08:09:17;16.83;;;8.68;;
50219;SDS011;36110;51.536;7.562;2023-12-20T08:11:49;20.77;;;8.77;;
50219;SDS011;36110;51.536;7.562;2023-12-20T08:14:15;22.17;;;8.13;;
50219;SDS011;36110;51.536;7.562;2023-12-20T08:16:40;17.55;;;9.27;;
50219;SDS011;36110;51.536;7.562;2023-12-20T08:19:06;22.40;;;7.72;;
50219;SDS011;36110;51.536;7.562;2023-12-20T08:21:31;18.15;;;8.20;;
50219;SDS011;36110;51.536;7.562;2023-12-20T08:23:56;13.02;;;7.78;;
50219;SDS011;36110;51.536;7.562;2023-12-20T08:26:22;19.10;;;8.02;;
50219;SDS011;36110;51.536;7.562;2023-12-20T08:28:49;22.48;;;7.85;;
50219;SDS011;36110;51.536;7.562;2023-12-20T08:31:15;15.98;;;7.72;;
50219;SDS011;36110;51.536;7.562;2023-12-20T08:33:43;19.55;;;7.13;;
50219;SDS011;36110;51.536;7.562;2023-12-20T08:36:08;12.77;;;7.45;;
50219;SDS011;36110;51.536;7.562;2023-12-20T08:38:34;16.00;;;7.43;;
50219;SDS011;36110;51.536;7.562;2023-12-20T08:40:59;17.02;;;6.82;;
50219;SDS011;36110;51.536;7.562;2023-12-20T08:43:25;10.85;;;7.18;;
50219;SDS011;36110;51.536;7.562;2023-12-20T08:45:50;14.52;;;7.68;;
50219;SDS011;36110;51.536;7.562;2023-12-20T08:48:15;15.10;;;7.20;;
50219;SDS011;36110;51.536;7.562;2023-12-20T08:50:40;14.65;;;8.15;;
50219;SDS011;36110;51.536;7.562;2023-12-20T08:53:06;14.32;;;7.15;;
50219;SDS011;36110;51.536;7.562;2023-12-20T08:55:31;23.75;;;7.22;;
50219;SDS011;36110;51.536;7.562;2023-12-20T08:57:57;21.25;;;8.38;;
50219;SDS011;36110;51.536;7.562;2023-12-20T09:00:22;14.93;;;7.80;;
50219;SDS011;36110;51.536;7.562;2023-12-20T09:02:50;13.30;;;7.80;;
50219;SDS011;36110;51.536;7.562;2023-12-20T09:05:16;15.07;;;6.65;;
50219;SDS011;36110;51.536;7.562;2023-12-20T09:07:41;18.75;;;7.03;;
50219;SDS011;36110;51.536;7.562;2023-12-20T09:10:06;16.50;;;7.82;;
50219;SDS011;36110;51.536;7.562;2023-12-20T09:12:32;21.80;;;7.38;;
50219;SDS011;36110;51.536;7.562;2023-12-20T09:14:57;11.25;;;7.25;;
50219;SDS011;36110;51.536;7.562;2023-12-20T09:17:23;17.48;;;7.53;;
50219;SDS011;36110;51.536;7.562;2023-12-20T09:19:48;13.35;;;7.07;;
50219;SDS011;36110;51.536;7.562;2023-12-20T09:22:14;20.58;;;6.15;;
50219;SDS011;36110;51.536;7.562;2023-12-20T09:24:39;13.57;;;5.97;;
50219;SDS011;36110;51.536;7.562;2023-12-20T09:27:05;16.98;;;5.55;;
50219;SDS011;36110;51.536;7.562;2023-12-20T09:29:30;12.95;;;7.60;;
50219;SDS011;36110;51.536;7.562;2023-12-20T09:31:56;14.82;;;6.47;;
50219;SDS011;36110;51.536;7.562;2023-12-20T09:34:22;20.13;;;6.78;;
50219;SDS011;36110;51.536;7.562;2023-12-20T09:36:48;13.27;;;6.80;;
50219;SDS011;36110;51.536;7.562;2023-12-20T09:39:13;14.07;;;6.40;;
50219;SDS011;36110;51.536;7.562;2023-12-20T09:41:44;13.77;;;6.80;;
50219;SDS011;36110;51.536;7.562;2023-12-20T09:44:15;18.83;;;5.68;;
50219;SDS011;36110;51.536;7.562;2023-12-20T09:46:43;14.40;;;6.22;;
50219;SDS011;36110;51.536;7.562;2023-12-20T09:49:10;16.83;;;6.68;;
50219;SDS011;36110;51.536;7.562;2023-12-20T09:51:36;14.93;;;6.50;;
50219;SDS011;36110;51.536;7.562;2023-12-20T09:54:03;10.00;;;6.22;;
50219;SDS011;36110;51.536;7.562;2023-12-20T09:56:29;14.63;;;6.03;;
50219;SDS011;36110;51.536;7.562;2023-12-20T09:58:55;17.27;;;5.80;;
50219;SDS011;36110;51.536;7.562;2023-12-20T10:01:20;11.73;;;5.43;;
50219;SDS011;36110;51.536;7.562;2023-12-20T10:03:46;17.42;;;5.85;;
50219;SDS011;36110;51.536;7.562;2023-12-20T10:06:11;19.80;;;5.63;;
50219;SDS011;36110;51.536;7.562;2023-12-20T10:08:37;13.63;;;6.60;;
50219;SDS011;36110;51.536;7.562;2023-12-20T10:11:04;12.32;;;5.25;;
50219;SDS011;36110;51.536;7.562;2023-12-20T10:13:30;11.48;;;5.63;;
50219;SDS011;36110;51.536;7.562;2023-12-20T10:15:55;13.25;;;6.10;;
50219;SDS011;36110;51.536;7.562;2023-12-20T10:18:21;9.30;;;5.93;;
50219;SDS011;36110;51.536;7.562;2023-12-20T10:20:46;11.82;;;6.38;;
50219;SDS011;36110;51.536;7.562;2023-12-20T10:23:12;15.52;;;5.60;;
50219;SDS011;36110;51.536;7.562;2023-12-20T10:25:38;10.80;;;4.85;;
50219;SDS011;36110;51.536;7.562;2023-12-20T10:28:16;8.70;;;6.07;;
50219;SDS011;36110;51.536;7.562;2023-12-20T10:30:48;17.02;;;5.93;;
50219;SDS011;36110;51.536;7.562;2023-12-20T10:33:13;17.67;;;5.78;;
50219;SDS011;36110;51.536;7.562;2023-12-20T10:35:48;16.75;;;7.28;;
50219;SDS011;36110;51.536;7.562;2023-12-20T10:38:14;20.80;;;8.32;;
50219;SDS011;36110;51.536;7.562;2023-12-20T10:40:40;15.98;;;6.82;;
50219;SDS011;36110;51.536;7.562;2023-12-20T10:43:05;20.08;;;6.47;;
50219;SDS011;36110;51.536;7.562;2023-12-20T10:45:31;14.70;;;7.70;;
50219;SDS011;36110;51.536;7.562;2023-12-20T10:47:56;14.88;;;7.25;;
50219;SDS011;36110;51.536;7.562;2023-12-20T10:50:24;18.63;;;6.20;;
50219;SDS011;36110;51.536;7.562;2023-12-20T10:52:49;18.63;;;6.90;;
50219;SDS011;36110;51.536;7.562;2023-12-20T10:55:20;19.83;;;5.78;;
50219;SDS011;36110;51.536;7.562;2023-12-20T10:57:46;11.60;;;5.78;;
50219;SDS011;36110;51.536;7.562;2023-12-20T11:00:16;16.85;;;5.68;;
50219;SDS011;36110;51.536;7.562;2023-12-20T11:02:44;17.83;;;6.10;;
50219;SDS011;36110;51.536;7.562;2023-12-20T11:05:19;10.27;;;5.55;;
50219;SDS011;36110;51.536;7.562;2023-12-20T11:07:55;14.82;;;5.85;;
50219;SDS011;36110;51.536;7.562;2023-12-20T11:10:35;11.10;;;5.32;;
50219;SDS011;36110;51.536;7.562;2023-12-20T11:13:16;18.48;;;6.30;;
50219;SDS011;36110;51.536;7.562;2023-12-20T11:15:45;15.15;;;5.82;;
50219;SDS011;36110;51.536;7.562;2023-12-20T11:18:11;12.05;;;5.55;;
50219;SDS011;36110;51.536;7.562;2023-12-20T11:20:37;10.25;;;5.55;;
50219;SDS011;36110;51.536;7.562;2023-12-20T11:23:03;12.02;;;6.13;;
50219;SDS011;36110;51.536;7.562;2023-12-20T11:25:28;13.40;;;5.57;;
50219;SDS011;36110;51.536;7.562;2023-12-20T11:28:07;13.30;;;5.72;;
50219;SDS011;36110;51.536;7.562;2023-12-20T11:30:52;14.57;;;5.97;;
50219;SDS011;36110;51.536;7.562;2023-12-20T11:33:21;13.77;;;6.13;;
50219;SDS011;36110;51.536;7.562;2023-12-20T11:35:48;10.95;;;5.45;;
50219;SDS011;36110;51.536;7.562;2023-12-20T11:38:14;17.17;;;5.72;;
50219;SDS011;36110;51.536;7.562;2023-12-20T11:40:40;11.52;;;5.28;;
50219;SDS011;36110;51.536;7.562;2023-12-20T11:43:06;9.65;;;5.40;;
50219;SDS011;36110;51.536;7.562;2023-12-20T11:45:32;14.35;;;6.00;;
50219;SDS011;36110;51.536;7.562;2023-12-20T11:47:59;19.45;;;5.75;;
50219;SDS011;36110;51.536;7.562;2023-12-20T11:50:24;13.98;;;5.85;;
50219;SDS011;36110;51.536;7.562;2023-12-20T11:52:51;14.20;;;5.82;;
50219;SDS011;36110;51.536;7.562;2023-12-20T11:55:17;15.63;;;5.22;;
50219;SDS011;36110;51.536;7.562;2023-12-20T11:57:43;13.93;;;5.82;;
50219;SDS011;36110;51.536;7.562;2023-12-20T12:00:08;9.48;;;5.47;;
50219;SDS011;36110;51.536;7.562;2023-12-20T12:02:35;17.50;;;6.32;;
50219;SDS011;36110;51.536;7.562;2023-12-20T12:05:00;16.67;;;6.85;;
50219;SDS011;36110;51.536;7.562;2023-12-20T12:07:25;11.30;;;5.75;;
50219;SDS011;36110;51.536;7.562;2023-12-20T12:09:51;13.55;;;6.13;;
50219;SDS011;36110;51.536;7.562;2023-12-20T12:12:16;14.95;;;5.90;;
50219;SDS011;36110;51.536;7.562;2023-12-20T12:14:43;19.92;;;6.70;;
50219;SDS011;36110;51.536;7.562;2023-12-20T12:17:13;14.07;;;6.22;;
50219;SDS011;36110;51.536;7.562;2023-12-20T12:19:42;10.32;;;5.28;;
50219;SDS011;36110;51.536;7.562;2023-12-20T12:22:08;15.27;;;6.45;;
50219;SDS011;36110;51.536;7.562;2023-12-20T12:24:45;9.57;;;5.65;;
50219;SDS011;36110;51.536;7.562;2023-12-20T12:27:11;10.38;;;6.35;;
50219;SDS011;36110;51.536;7.562;2023-12-20T12:29:37;13.65;;;5.93;;
50219;SDS011;36110;51.536;7.562;2023-12-20T12:32:06;19.33;;;6.18;;
50219;SDS011;36110;51.536;7.562;2023-12-20T12:34:33;22.00;;;6.75;;
50219;SDS011;36110;51.536;7.562;2023-12-20T12:36:59;9.45;;;5.68;;
50219;SDS011;36110;51.536;7.562;2023-12-20T12:39:24;10.40;;;5.75;;
50219;SDS011;36110;51.536;7.562;2023-12-20T12:41:50;14.18;;;5.57;;
50219;SDS011;36110;51.536;7.562;2023-12-20T12:44:15;10.65;;;5.60;;
50219;SDS011;36110;51.536;7.562;2023-12-20T12:46:42;11.15;;;5.70;;
50219;SDS011;36110;51.536;7.562;2023-12-20T12:49:08;16.00;;;6.13;;
50219;SDS011;36110;51.536;7.562;2023-12-20T12:51:33;18.50;;;6.80;;
50219;SDS011;36110;51.536;7.562;2023-12-20T12:53:58;18.50;;;7.25;;
50219;SDS011;36110;51.536;7.562;2023-12-20T12:56:23;19.40;;;6.82;;
50219;SDS011;36110;51.536;7.562;2023-12-20T12:58:49;20.13;;;7.38;;
50219;SDS011;36110;51.536;7.562;2023-12-20T13:01:14;18.90;;;7.78;;
50219;SDS011;36110;51.536;7.562;2023-12-20T13:03:39;19.23;;;7.80;;
50219;SDS011;36110;51.536;7.562;2023-12-20T13:06:05;15.80;;;7.30;;
50219;SDS011;36110;51.536;7.562;2023-12-20T13:08:31;19.55;;;7.65;;
50219;SDS011;36110;51.536;7.562;2023-12-20T13:10:56;16.35;;;6.80;;
50219;SDS011;36110;51.536;7.562;2023-12-20T13:13:25;16.90;;;6.97;;
50219;SDS011;36110;51.536;7.562;2023-12-20T13:15:50;18.90;;;8.30;;
50219;SDS011;36110;51.536;7.562;2023-12-20T13:18:19;17.70;;;7.65;;
50219;SDS011;36110;51.536;7.562;2023-12-20T13:20:45;21.20;;;7.88;;
50219;SDS011;36110;51.536;7.562;2023-12-20T13:23:10;16.52;;;7.30;;
50219;SDS011;36110;51.536;7.562;2023-12-20T13:25:35;18.67;;;7.57;;
50219;SDS011;36110;51.536;7.562;2023-12-20T13:28:01;21.30;;;8.27;;
50219;SDS011;36110;51.536;7.562;2023-12-20T13:30:27;18.45;;;7.35;;
50219;SDS011;36110;51.536;7.562;2023-12-20T13:32:53;19.90;;;7.97;;
50219;SDS011;36110;51.536;7.562;2023-12-20T13:35:18;17.10;;;7.18;;
50219;SDS011;36110;51.536;7.562;2023-12-20T13:37:43;16.17;;;7.40;;
50219;SDS011;36110;51.536;7.562;2023-12-20T13:40:09;19.38;;;8.40;;
50219;SDS011;36110;51.536;7.562;2023-12-20T13:42:35;20.05;;;8.30;;
50219;SDS011;36110;51.536;7.562;2023-12-20T13:45:00;26.73;;;7.53;;
50219;SDS011;36110;51.536;7.562;2023-12-20T13:47:26;14.85;;;6.97;;
50219;SDS011;36110;51.536;7.562;2023-12-20T13:49:51;12.63;;;7.00;;
50219;SDS011;36110;51.536;7.562;2023-12-20T13:52:17;12.95;;;7.30;;
50219;SDS011;36110;51.536;7.562;2023-12-20T13:54:43;13.98;;;7.68;;
50219;SDS011;36110;51.536;7.562;2023-12-20T13:57:09;21.80;;;7.15;;
50219;SDS011;36110;51.536;7.562;2023-12-20T13:59:34;13.93;;;6.80;;
50219;SDS011;36110;51.536;7.562;2023-12-20T14:02:00;16.35;;;7.32;;
50219;SDS011;36110;51.536;7.562;2023-12-20T14:04:26;11.43;;;6.85;;
50219;SDS011;36110;51.536;7.562;2023-12-20T14:06:51;14.93;;;7.45;;
50219;SDS011;36110;51.536;7.562;2023-12-20T14:09:16;16.30;;;7.03;;
50219;SDS011;36110;51.536;7.562;2023-12-20T14:11:42;14.02;;;7.47;;
50219;SDS011;36110;51.536;7.562;2023-12-20T14:14:07;14.00;;;7.03;;
50219;SDS011;36110;51.536;7.562;2023-12-20T14:16:33;11.10;;;6.88;;
50219;SDS011;36110;51.536;7.562;2023-12-20T14:18:59;12.77;;;6.50;;
50219;SDS011;36110;51.536;7.562;2023-12-20T14:21:24;14.80;;;6.75;;
50219;SDS011;36110;51.536;7.562;2023-12-20T14:23:49;24.35;;;6.97;;
50219;SDS011;36110;51.536;7.562;2023-12-20T14:26:15;11.10;;;5.38;;
50219;SDS011;36110;51.536;7.562;2023-12-20T14:28:41;13.73;;;6.30;;
50219;SDS011;36110;51.536;7.562;2023-12-20T14:31:06;12.82;;;5.78;;